sensor_id;sensor_type;location;lat;lon;timestamp;pressure;altitude;pressure_sealevel;temperature;humidity
34237;BME280;20501;45.956;13.632;2023-07-24T00:00:18;100570.16;;;21.90;72.42
34237;BME280;20501;45.956;13.632;2023-07-24T00:02:44;100574.41;;;21.65;73.44
34237;BME280;20501;45.956;13.632;2023-07-24T00:05:09;100571.88;;;21.71;73.90
34237;BME280;20501;45.956;13.632;2023-07-24T00:07:35;100566.38;;;21.77;73.91
34237;BME280;20501;45.956;13.632;2023-07-24T00:10:01;100568.94;;;21.52;75.00
34237;BME280;20501;45.956;13.632;2023-07-24T00:12:27;100569.56;;;21.54;76.40
34237;BME280;20501;45.956;13.632;2023-07-24T00:14:52;100564.91;;;21.34;75.96
34237;BME280;20501;45.956;13.632;2023-07-24T00:17:18;100561.34;;;21.41;75.41
34237;BME280;20501;45.956;13.632;2023-07-24T00:19:43;100559.00;;;21.51;74.46
34237;BME280;20501;45.956;13.632;2023-07-24T00:22:09;100567.00;;;21.53;74.96
34237;BME280;20501;45.956;13.632;2023-07-24T00:24:34;100554.34;;;21.38;75.17
34237;BME280;20501;45.956;13.632;2023-07-24T00:26:59;100560.88;;;21.50;74.35
34237;BME280;20501;45.956;13.632;2023-07-24T00:29:25;100552.44;;;21.32;75.02
34237;BME280;20501;45.956;13.632;2023-07-24T00:31:50;100544.84;;;21.34;75.60
34237;BME280;20501;45.956;13.632;2023-07-24T00:34:16;100546.94;;;21.45;74.41
34237;BME280;20501;45.956;13.632;2023-07-24T00:36:41;100541.88;;;21.49;74.73
34237;BME280;20501;45.956;13.632;2023-07-24T00:39:06;100543.34;;;21.52;74.47
34237;BME280;20501;45.956;13.632;2023-07-24T00:41:32;100547.38;;;21.69;75.36
34237;BME280;20501;45.956;13.632;2023-07-24T00:43:57;100539.47;;;21.93;73.68
34237;BME280;20501;45.956;13.632;2023-07-24T00:46:24;100535.56;;;21.42;74.72
34237;BME280;20501;45.956;13.632;2023-07-24T00:48:50;100532.56;;;21.37;74.83
34237;BME280;20501;45.956;13.632;2023-07-24T00:51:16;100530.47;;;21.32;74.50
34237;BME280;20501;45.956;13.632;2023-07-24T00:53:42;100530.88;;;21.36;74.85
34237;BME280;20501;45.956;13.632;2023-07-24T00:56:08;100530.25;;;21.40;74.51
34237;BME280;20501;45.956;13.632;2023-07-24T00:58:37;100531.09;;;21.47;74.19
34237;BME280;20501;45.956;13.632;2023-07-24T01:01:02;100527.72;;;21.52;74.33
34237;BME280;20501;45.956;13.632;2023-07-24T01:03:33;100523.69;;;21.48;74.77
34237;BME280;20501;45.956;13.632;2023-07-24T01:06:02;100528.31;;;21.74;75.21
34237;BME280;20501;45.956;13.632;2023-07-24T01:08:28;100523.91;;;21.60;74.88
34237;BME280;20501;45.956;13.632;2023-07-24T01:10:59;100530.66;;;21.77;76.01
34237;BME280;20501;45.956;13.632;2023-07-24T01:13:32;100523.22;;;21.85;74.82
34237;BME280;20501;45.956;13.632;2023-07-24T01:16:09;100530.22;;;21.74;74.95
34237;BME280;20501;45.956;13.632;2023-07-24T01:18:39;100529.38;;;21.67;75.48
34237;BME280;20501;45.956;13.632;2023-07-24T01:21:04;100528.72;;;21.85;75.44
34237;BME280;20501;45.956;13.632;2023-07-24T01:23:55;100532.56;;;21.43;76.63
34237;BME280;20501;45.956;13.632;2023-07-24T01:26:24;100526.25;;;21.29;76.53
34237;BME280;20501;45.956;13.632;2023-07-24T01:28:50;100523.94;;;21.26;76.74
34237;BME280;20501;45.956;13.632;2023-07-24T01:31:16;100521.41;;;21.31;76.51
34237;BME280;20501;45.956;13.632;2023-07-24T01:33:43;100519.25;;;21.47;76.17
34237;BME280;20501;45.956;13.632;2023-07-24T01:36:09;100512.28;;;21.31;76.22
34237;BME280;20501;45.956;13.632;2023-07-24T01:38:35;100520.53;;;21.44;76.42
34237;BME280;20501;45.956;13.632;2023-07-24T01:41:02;100509.75;;;21.43;76.08
34237;BME280;20501;45.956;13.632;2023-07-24T01:43:29;100508.25;;;21.40;76.64
34237;BME280;20501;45.956;13.632;2023-07-24T01:45:54;100507.84;;;21.43;75.87
34237;BME280;20501;45.956;13.632;2023-07-24T01:48:20;100507.19;;;21.68;75.68
34237;BME280;20501;45.956;13.632;2023-07-24T01:50:45;100506.38;;;21.54;75.88
34237;BME280;20501;45.956;13.632;2023-07-24T01:53:11;100492.78;;;21.79;76.05
34237;BME280;20501;45.956;13.632;2023-07-24T01:55:36;100494.03;;;21.77;75.40
34237;BME280;20501;45.956;13.632;2023-07-24T01:58:01;100488.13;;;21.73;76.05
34237;BME280;20501;45.956;13.632;2023-07-24T02:00:27;100489.09;;;21.99;76.65
34237;BME280;20501;45.956;13.632;2023-07-24T02:02:52;100493.22;;;21.49;75.69
34237;BME280;20501;45.956;13.632;2023-07-24T02:05:18;100478.03;;;21.33;76.50
34237;BME280;20501;45.956;13.632;2023-07-24T02:07:43;100469.81;;;21.33;76.92
34237;BME280;20501;45.956;13.632;2023-07-24T02:10:09;100471.06;;;21.38;77.09
34237;BME280;20501;45.956;13.632;2023-07-24T02:12:34;100458.41;;;21.30;77.31
34237;BME280;20501;45.956;13.632;2023-07-24T02:15:00;100458.81;;;21.40;77.14
34237;BME280;20501;45.956;13.632;2023-07-24T02:17:25;100456.81;;;21.81;77.74
34237;BME280;20501;45.956;13.632;2023-07-24T02:19:50;100453.28;;;21.67;76.30
34237;BME280;20501;45.956;13.632;2023-07-24T02:22:16;100453.25;;;21.80;76.94
34237;BME280;20501;45.956;13.632;2023-07-24T02:24:41;100450.53;;;21.54;76.77
34237;BME280;20501;45.956;13.632;2023-07-24T02:27:07;100452.28;;;21.28;77.92
34237;BME280;20501;45.956;13.632;2023-07-24T02:29:32;100448.03;;;21.59;78.46
34237;BME280;20501;45.956;13.632;2023-07-24T02:31:59;100437.88;;;21.39;77.61
34237;BME280;20501;45.956;13.632;2023-07-24T02:34:24;100448.06;;;21.25;79.25
34237;BME280;20501;45.956;13.632;2023-07-24T02:36:52;100436.44;;;21.23;78.14
34237;BME280;20501;45.956;13.632;2023-07-24T02:39:19;100439.44;;;21.01;79.13
34237;BME280;20501;45.956;13.632;2023-07-24T02:41:44;100439.00;;;21.25;78.37
34237;BME280;20501;45.956;13.632;2023-07-24T02:44:10;100435.78;;;21.28;78.31
34237;BME280;20501;45.956;13.632;2023-07-24T02:46:36;100433.50;;;21.11;79.69
34237;BME280;20501;45.956;13.632;2023-07-24T02:49:01;100441.09;;;21.36;79.04
34237;BME280;20501;45.956;13.632;2023-07-24T02:51:27;100440.69;;;21.32;79.07
34237;BME280;20501;45.956;13.632;2023-07-24T02:53:54;100439.59;;;21.33;79.07
34237;BME280;20501;45.956;13.632;2023-07-24T02:56:19;100434.38;;;21.05;80.48
34237;BME280;20501;45.956;13.632;2023-07-24T02:58:46;100435.75;;;21.48;79.76
34237;BME280;20501;45.956;13.632;2023-07-24T03:01:11;100439.38;;;21.42;79.09
34237;BME280;20501;45.956;13.632;2023-07-24T03:03:40;100439.97;;;21.44;79.70
34237;BME280;20501;45.956;13.632;2023-07-24T03:08:30;100447.25;;;21.05;79.92
34237;BME280;20501;45.956;13.632;2023-07-24T03:10:56;100460.56;;;20.94;81.11
34237;BME280;20501;45.956;13.632;2023-07-24T03:13:21;100461.59;;;21.27;79.82
34237;BME280;20501;45.956;13.632;2023-07-24T03:15:57;100461.78;;;21.25;79.62
34237;BME280;20501;45.956;13.632;2023-07-24T03:18:23;100458.44;;;20.83;81.19
34237;BME280;20501;45.956;13.632;2023-07-24T03:20:48;100467.72;;;20.75;81.61
34237;BME280;20501;45.956;13.632;2023-07-24T03:23:14;100469.66;;;20.88;81.27
34237;BME280;20501;45.956;13.632;2023-07-24T03:25:39;100459.66;;;20.53;82.78
34237;BME280;20501;45.956;13.632;2023-07-24T03:28:05;100469.16;;;20.51;83.18
34237;BME280;20501;45.956;13.632;2023-07-24T03:30:30;100457.59;;;20.96;81.60
34237;BME280;20501;45.956;13.632;2023-07-24T03:32:56;100463.13;;;20.89;81.52
34237;BME280;20501;45.956;13.632;2023-07-24T03:35:22;100460.97;;;20.91;82.08
34237;BME280;20501;45.956;13.632;2023-07-24T03:37:47;100453.19;;;20.95;81.38
34237;BME280;20501;45.956;13.632;2023-07-24T03:40:13;100454.41;;;20.72;81.99
34237;BME280;20501;45.956;13.632;2023-07-24T03:42:39;100459.91;;;20.72;82.30
34237;BME280;20501;45.956;13.632;2023-07-24T03:45:05;100444.28;;;21.13;81.54
34237;BME280;20501;45.956;13.632;2023-07-24T03:47:30;100442.22;;;20.95;81.20
34237;BME280;20501;45.956;13.632;2023-07-24T03:49:56;100438.13;;;20.64;82.69
34237;BME280;20501;45.956;13.632;2023-07-24T03:52:21;100443.44;;;20.92;82.63
34237;BME280;20501;45.956;13.632;2023-07-24T03:54:47;100434.78;;;20.75;81.99
34237;BME280;20501;45.956;13.632;2023-07-24T03:57:12;100429.94;;;21.04;80.82
34237;BME280;20501;45.956;13.632;2023-07-24T03:59:38;100429.06;;;21.10;80.66
34237;BME280;20501;45.956;13.632;2023-07-24T04:02:04;100426.56;;;21.15;80.91
34237;BME280;20501;45.956;13.632;2023-07-24T04:04:29;100431.19;;;21.15;81.54
34237;BME280;20501;45.956;13.632;2023-07-24T04:06:55;100431.81;;;21.03;80.96
34237;BME280;20501;45.956;13.632;2023-07-24T04:09:20;100433.66;;;21.43;80.12
34237;BME280;20501;45.956;13.632;2023-07-24T04:11:45;100443.19;;;21.27;81.08
34237;BME280;20501;45.956;13.632;2023-07-24T04:14:11;100427.09;;;21.44;80.78
34237;BME280;20501;45.956;13.632;2023-07-24T04:16:36;100424.66;;;20.96;81.50
34237;BME280;20501;45.956;13.632;2023-07-24T04:19:02;100428.25;;;20.90;82.49
34237;BME280;20501;45.956;13.632;2023-07-24T04:21:28;100427.19;;;21.11;81.70
34237;BME280;20501;45.956;13.632;2023-07-24T04:23:53;100423.63;;;20.77;83.06
34237;BME280;20501;45.956;13.632;2023-07-24T04:26:19;100421.66;;;20.64;83.34
34237;BME280;20501;45.956;13.632;2023-07-24T04:28:44;100418.97;;;20.91;82.62
34237;BME280;20501;45.956;13.632;2023-07-24T04:31:09;100418.97;;;21.04;82.21
34237;BME280;20501;45.956;13.632;2023-07-24T04:33:35;100409.81;;;21.30;81.58
34237;BME280;20501;45.956;13.632;2023-07-24T04:36:00;100410.41;;;21.39;80.47
34237;BME280;20501;45.956;13.632;2023-07-24T04:38:26;100414.69;;;21.28;80.64
34237;BME280;20501;45.956;13.632;2023-07-24T04:40:51;100422.72;;;21.23;80.30
34237;BME280;20501;45.956;13.632;2023-07-24T04:43:17;100412.56;;;21.37;81.48
34237;BME280;20501;45.956;13.632;2023-07-24T04:45:42;100419.00;;;21.70;80.08
34237;BME280;20501;45.956;13.632;2023-07-24T04:48:07;100417.06;;;21.77;79.74
34237;BME280;20501;45.956;13.632;2023-07-24T04:50:33;100417.78;;;21.52;79.55
34237;BME280;20501;45.956;13.632;2023-07-24T04:52:58;100414.44;;;21.30;80.16
34237;BME280;20501;45.956;13.632;2023-07-24T04:55:24;100425.66;;;21.35;79.85
34237;BME280;20501;45.956;13.632;2023-07-24T04:57:49;100419.09;;;21.43;80.49
34237;BME280;20501;45.956;13.632;2023-07-24T05:00:15;100423.53;;;21.37;80.64
34237;BME280;20501;45.956;13.632;2023-07-24T05:02:41;100438.78;;;21.13;81.93
34237;BME280;20501;45.956;13.632;2023-07-24T05:05:06;100435.41;;;21.17;81.44
34237;BME280;20501;45.956;13.632;2023-07-24T05:07:32;100436.91;;;21.13;81.92
34237;BME280;20501;45.956;13.632;2023-07-24T05:09:57;100428.44;;;21.22;81.18
34237;BME280;20501;45.956;13.632;2023-07-24T05:12:23;100418.94;;;21.11;81.65
34237;BME280;20501;45.956;13.632;2023-07-24T05:14:49;100422.31;;;21.06;82.65
34237;BME280;20501;45.956;13.632;2023-07-24T05:17:14;100421.06;;;21.02;82.45
34237;BME280;20501;45.956;13.632;2023-07-24T05:19:40;100424.03;;;20.87;83.09
34237;BME280;20501;45.956;13.632;2023-07-24T05:22:05;100421.72;;;21.04;83.24
34237;BME280;20501;45.956;13.632;2023-07-24T05:24:31;100409.19;;;21.22;82.77
34237;BME280;20501;45.956;13.632;2023-07-24T05:26:56;100407.06;;;21.37;81.95
34237;BME280;20501;45.956;13.632;2023-07-24T05:29:21;100405.31;;;21.49;81.55
34237;BME280;20501;45.956;13.632;2023-07-24T05:31:47;100409.94;;;21.56;81.42
34237;BME280;20501;45.956;13.632;2023-07-24T05:34:13;100418.59;;;21.66;81.32
34237;BME280;20501;45.956;13.632;2023-07-24T05:36:38;100422.63;;;21.70;81.04
34237;BME280;20501;45.956;13.632;2023-07-24T05:39:11;100429.31;;;21.81;80.38
34237;BME280;20501;45.956;13.632;2023-07-24T05:41:36;100435.44;;;21.90;80.09
34237;BME280;20501;45.956;13.632;2023-07-24T05:44:02;100434.53;;;21.96;80.05
34237;BME280;20501;45.956;13.632;2023-07-24T05:46:27;100439.63;;;21.92;80.40
34237;BME280;20501;45.956;13.632;2023-07-24T05:48:53;100442.81;;;21.89;79.98
34237;BME280;20501;45.956;13.632;2023-07-24T05:51:18;100444.53;;;21.84;80.00
34237;BME280;20501;45.956;13.632;2023-07-24T05:53:44;100454.91;;;21.82;80.09
34237;BME280;20501;45.956;13.632;2023-07-24T05:56:09;100450.44;;;21.87;80.42
34237;BME280;20501;45.956;13.632;2023-07-24T05:58:34;100433.09;;;21.87;80.14
34237;BME280;20501;45.956;13.632;2023-07-24T06:01:00;100431.41;;;21.86;80.55
34237;BME280;20501;45.956;13.632;2023-07-24T06:03:26;100425.22;;;21.97;80.22
34237;BME280;20501;45.956;13.632;2023-07-24T06:05:55;100420.75;;;22.03;80.22
34237;BME280;20501;45.956;13.632;2023-07-24T06:08:21;100420.94;;;22.08;79.88
34237;BME280;20501;45.956;13.632;2023-07-24T06:10:50;100415.66;;;22.06;79.96
34237;BME280;20501;45.956;13.632;2023-07-24T06:13:19;100415.81;;;22.18;79.45
34237;BME280;20501;45.956;13.632;2023-07-24T06:15:47;100413.41;;;22.29;79.32
34237;BME280;20501;45.956;13.632;2023-07-24T06:18:13;100405.94;;;22.36;79.16
34237;BME280;20501;45.956;13.632;2023-07-24T06:20:38;100402.13;;;22.44;79.48
34237;BME280;20501;45.956;13.632;2023-07-24T06:23:04;100401.84;;;22.52;78.30
34237;BME280;20501;45.956;13.632;2023-07-24T06:25:32;100413.00;;;22.57;78.06
34237;BME280;20501;45.956;13.632;2023-07-24T06:27:58;100408.47;;;22.69;77.90
34237;BME280;20501;45.956;13.632;2023-07-24T06:30:24;100416.66;;;22.76;78.15
34237;BME280;20501;45.956;13.632;2023-07-24T06:32:49;100429.69;;;22.87;77.93
34237;BME280;20501;45.956;13.632;2023-07-24T06:35:15;100437.91;;;22.94;77.87
34237;BME280;20501;45.956;13.632;2023-07-24T06:37:40;100434.81;;;22.84;77.64
34237;BME280;20501;45.956;13.632;2023-07-24T06:40:07;100433.13;;;22.83;77.93
34237;BME280;20501;45.956;13.632;2023-07-24T06:42:33;100439.66;;;22.88;77.73
34237;BME280;20501;45.956;13.632;2023-07-24T06:44:58;100438.97;;;22.93;78.01
34237;BME280;20501;45.956;13.632;2023-07-24T06:47:24;100433.66;;;22.98;78.72
34237;BME280;20501;45.956;13.632;2023-07-24T06:49:50;100425.59;;;22.97;77.48
34237;BME280;20501;45.956;13.632;2023-07-24T06:52:15;100430.66;;;23.00;77.66
34237;BME280;20501;45.956;13.632;2023-07-24T06:54:41;100425.47;;;23.10;77.69
34237;BME280;20501;45.956;13.632;2023-07-24T06:57:06;100429.47;;;23.14;77.59
34237;BME280;20501;45.956;13.632;2023-07-24T06:59:31;100437.00;;;23.26;77.09
34237;BME280;20501;45.956;13.632;2023-07-24T07:01:57;100430.97;;;23.36;76.84
34237;BME280;20501;45.956;13.632;2023-07-24T07:04:22;100423.53;;;23.36;77.57
34237;BME280;20501;45.956;13.632;2023-07-24T07:06:48;100426.44;;;23.41;77.37
34237;BME280;20501;45.956;13.632;2023-07-24T07:09:13;100408.75;;;23.49;76.52
34237;BME280;20501;45.956;13.632;2023-07-24T07:11:39;100388.31;;;23.57;76.66
34237;BME280;20501;45.956;13.632;2023-07-24T07:14:04;100380.47;;;23.72;75.61
34237;BME280;20501;45.956;13.632;2023-07-24T07:16:29;100376.81;;;23.60;76.21
34237;BME280;20501;45.956;13.632;2023-07-24T07:18:55;100363.50;;;23.57;77.64
34237;BME280;20501;45.956;13.632;2023-07-24T07:21:20;100332.38;;;23.68;77.20
34237;BME280;20501;45.956;13.632;2023-07-24T07:23:46;100316.31;;;23.65;76.15
34237;BME280;20501;45.956;13.632;2023-07-24T07:26:11;100326.44;;;23.83;75.36
34237;BME280;20501;45.956;13.632;2023-07-24T07:28:36;100345.75;;;23.83;75.36
34237;BME280;20501;45.956;13.632;2023-07-24T07:31:03;100354.50;;;23.80;76.50
34237;BME280;20501;45.956;13.632;2023-07-24T07:33:28;100368.19;;;23.87;76.14
34237;BME280;20501;45.956;13.632;2023-07-24T07:35:54;100388.19;;;24.01;76.33
34237;BME280;20501;45.956;13.632;2023-07-24T07:38:20;100390.06;;;24.31;77.65
34237;BME280;20501;45.956;13.632;2023-07-24T07:40:47;100382.28;;;24.27;77.16
34237;BME280;20501;45.956;13.632;2023-07-24T07:43:13;100379.41;;;24.34;76.61
34237;BME280;20501;45.956;13.632;2023-07-24T07:45:38;100378.31;;;24.35;76.85
34237;BME280;20501;45.956;13.632;2023-07-24T07:48:04;100379.06;;;24.54;76.71
34237;BME280;20501;45.956;13.632;2023-07-24T07:50:30;100377.13;;;24.43;75.77
34237;BME280;20501;45.956;13.632;2023-07-24T07:52:55;100376.41;;;24.48;76.73
34237;BME280;20501;45.956;13.632;2023-07-24T07:55:20;100383.41;;;24.50;76.07
34237;BME280;20501;45.956;13.632;2023-07-24T07:57:46;100387.13;;;24.56;76.08
34237;BME280;20501;45.956;13.632;2023-07-24T08:00:12;100365.38;;;24.36;75.53
34237;BME280;20501;45.956;13.632;2023-07-24T08:02:38;100334.28;;;24.52;75.83
34237;BME280;20501;45.956;13.632;2023-07-24T08:05:08;100332.13;;;24.54;75.56
34237;BME280;20501;45.956;13.632;2023-07-24T08:07:34;100317.59;;;24.59;76.57
34237;BME280;20501;45.956;13.632;2023-07-24T08:09:59;100312.94;;;24.95;71.20
34237;BME280;20501;45.956;13.632;2023-07-24T08:12:25;100295.78;;;24.81;72.94
34237;BME280;20501;45.956;13.632;2023-07-24T08:14:50;100297.63;;;25.16;73.67
34237;BME280;20501;45.956;13.632;2023-07-24T08:17:16;100297.19;;;25.48;71.90
34237;BME280;20501;45.956;13.632;2023-07-24T08:19:41;100283.03;;;25.04;72.30
34237;BME280;20501;45.956;13.632;2023-07-24T08:22:07;100282.78;;;25.75;68.27
34237;BME280;20501;45.956;13.632;2023-07-24T08:24:35;100284.38;;;25.42;68.65
34237;BME280;20501;45.956;13.632;2023-07-24T08:27:01;100276.91;;;25.72;66.80
34237;BME280;20501;45.956;13.632;2023-07-24T08:29:26;100279.78;;;25.94;63.92
34237;BME280;20501;45.956;13.632;2023-07-24T08:31:52;100276.78;;;25.95;62.34
34237;BME280;20501;45.956;13.632;2023-07-24T08:34:17;100263.00;;;26.01;63.85
34237;BME280;20501;45.956;13.632;2023-07-24T08:36:43;100259.03;;;26.25;62.16
34237;BME280;20501;45.956;13.632;2023-07-24T08:39:08;100260.38;;;26.40;60.12
34237;BME280;20501;45.956;13.632;2023-07-24T08:41:34;100280.69;;;26.11;62.49
34237;BME280;20501;45.956;13.632;2023-07-24T08:44:01;100292.09;;;26.32;61.02
34237;BME280;20501;45.956;13.632;2023-07-24T08:46:27;100285.63;;;26.09;62.23
34237;BME280;20501;45.956;13.632;2023-07-24T08:48:54;100280.69;;;26.68;60.77
34237;BME280;20501;45.956;13.632;2023-07-24T08:51:21;100291.00;;;26.33;61.60
34237;BME280;20501;45.956;13.632;2023-07-24T08:53:47;100291.03;;;26.55;60.93
34237;BME280;20501;45.956;13.632;2023-07-24T08:56:13;100307.25;;;26.30;63.76
34237;BME280;20501;45.956;13.632;2023-07-24T08:58:40;100314.88;;;26.39;62.47
34237;BME280;20501;45.956;13.632;2023-07-24T09:01:06;100315.16;;;26.55;62.54
34237;BME280;20501;45.956;13.632;2023-07-24T09:03:33;100325.84;;;26.68;61.51
34237;BME280;20501;45.956;13.632;2023-07-24T09:05:59;100321.84;;;26.59;62.08
34237;BME280;20501;45.956;13.632;2023-07-24T09:08:33;100320.13;;;26.75;62.22
34237;BME280;20501;45.956;13.632;2023-07-24T09:11:00;100306.13;;;26.82;61.29
34237;BME280;20501;45.956;13.632;2023-07-24T09:13:26;100299.78;;;26.64;61.99
34237;BME280;20501;45.956;13.632;2023-07-24T09:15:51;100287.69;;;26.19;63.10
34237;BME280;20501;45.956;13.632;2023-07-24T09:18:17;100266.47;;;26.25;64.50
34237;BME280;20501;45.956;13.632;2023-07-24T09:20:44;100260.78;;;26.15;64.34
34237;BME280;20501;45.956;13.632;2023-07-24T09:23:10;100255.81;;;26.34;64.34
34237;BME280;20501;45.956;13.632;2023-07-24T09:25:37;100237.88;;;26.02;68.30
34237;BME280;20501;45.956;13.632;2023-07-24T09:28:10;100200.03;;;26.25;64.10
34237;BME280;20501;45.956;13.632;2023-07-24T09:30:36;100183.03;;;26.16;62.69
34237;BME280;20501;45.956;13.632;2023-07-24T09:33:02;100169.00;;;26.40;61.85
34237;BME280;20501;45.956;13.632;2023-07-24T09:35:27;100163.28;;;26.91;60.13
34237;BME280;20501;45.956;13.632;2023-07-24T09:38:07;100195.97;;;26.10;63.27
34237;BME280;20501;45.956;13.632;2023-07-24T09:43:23;100237.78;;;26.87;60.30
34237;BME280;20501;45.956;13.632;2023-07-24T09:45:49;100248.59;;;26.89;60.33
34237;BME280;20501;45.956;13.632;2023-07-24T09:48:16;100235.16;;;26.58;61.38
34237;BME280;20501;45.956;13.632;2023-07-24T09:50:44;100243.59;;;26.86;61.39
34237;BME280;20501;45.956;13.632;2023-07-24T09:53:21;100242.03;;;26.56;61.98
34237;BME280;20501;45.956;13.632;2023-07-24T09:58:25;100259.59;;;26.45;62.24
34237;BME280;20501;45.956;13.632;2023-07-24T10:00:52;100283.47;;;26.85;61.33
34237;BME280;20501;45.956;13.632;2023-07-24T10:03:18;100285.94;;;26.47;61.00
34237;BME280;20501;45.956;13.632;2023-07-24T10:05:46;100257.94;;;26.26;62.69
34237;BME280;20501;45.956;13.632;2023-07-24T10:08:11;100251.69;;;26.36;62.91
34237;BME280;20501;45.956;13.632;2023-07-24T10:10:38;100292.41;;;26.19;62.67
34237;BME280;20501;45.956;13.632;2023-07-24T10:13:04;100302.56;;;26.30;62.53
34237;BME280;20501;45.956;13.632;2023-07-24T10:15:31;100271.03;;;26.14;64.83
34237;BME280;20501;45.956;13.632;2023-07-24T10:18:07;100171.47;;;26.02;69.36
34237;BME280;20501;45.956;13.632;2023-07-24T10:20:38;100184.53;;;25.90;71.55
34237;BME280;20501;45.956;13.632;2023-07-24T10:23:05;100215.97;;;25.09;70.09
34237;BME280;20501;45.956;13.632;2023-07-24T10:25:32;100267.72;;;25.54;73.69
34237;BME280;20501;45.956;13.632;2023-07-24T10:28:05;100271.78;;;25.63;72.48
34237;BME280;20501;45.956;13.632;2023-07-24T10:30:34;100274.81;;;25.79;73.52
34237;BME280;20501;45.956;13.632;2023-07-24T10:33:11;100273.25;;;25.54;73.07
34237;BME280;20501;45.956;13.632;2023-07-24T10:38:07;100282.53;;;26.23;70.25
34237;BME280;20501;45.956;13.632;2023-07-24T10:40:33;100281.75;;;26.45;66.77
34237;BME280;20501;45.956;13.632;2023-07-24T10:43:00;100297.44;;;26.22;68.69
34237;BME280;20501;45.956;13.632;2023-07-24T10:45:26;100295.63;;;25.99;68.18
34237;BME280;20501;45.956;13.632;2023-07-24T10:47:51;100270.53;;;26.17;67.39
34237;BME280;20501;45.956;13.632;2023-07-24T10:50:18;100247.94;;;26.08;67.94
34237;BME280;20501;45.956;13.632;2023-07-24T10:52:44;100285.84;;;26.25;67.35
34237;BME280;20501;45.956;13.632;2023-07-24T10:55:09;100309.84;;;25.44;69.60
34237;BME280;20501;45.956;13.632;2023-07-24T10:57:35;100334.03;;;25.95;69.65
34237;BME280;20501;45.956;13.632;2023-07-24T11:00:00;100336.63;;;25.44;70.37
34237;BME280;20501;45.956;13.632;2023-07-24T11:02:25;100367.88;;;25.56;70.58
34237;BME280;20501;45.956;13.632;2023-07-24T11:04:51;100396.84;;;25.94;70.60
34237;BME280;20501;45.956;13.632;2023-07-24T11:07:16;100403.16;;;25.78;70.53
34237;BME280;20501;45.956;13.632;2023-07-24T11:09:42;100382.09;;;25.48;73.43
34237;BME280;20501;45.956;13.632;2023-07-24T11:12:18;100331.97;;;25.44;73.50
34237;BME280;20501;45.956;13.632;2023-07-24T11:17:13;100359.47;;;25.39;76.17
34237;BME280;20501;45.956;13.632;2023-07-24T11:19:38;100396.03;;;25.29;75.52
34237;BME280;20501;45.956;13.632;2023-07-24T11:22:03;100417.91;;;25.31;74.90
34237;BME280;20501;45.956;13.632;2023-07-24T11:24:29;100409.47;;;25.49;73.05
34237;BME280;20501;45.956;13.632;2023-07-24T11:26:54;100402.19;;;25.31;73.13
34237;BME280;20501;45.956;13.632;2023-07-24T11:29:20;100394.97;;;25.42;75.08
34237;BME280;20501;45.956;13.632;2023-07-24T11:31:45;100384.13;;;25.53;77.19
34237;BME280;20501;45.956;13.632;2023-07-24T11:34:12;100392.53;;;25.46;77.74
34237;BME280;20501;45.956;13.632;2023-07-24T11:36:38;100390.38;;;25.24;77.61
34237;BME280;20501;45.956;13.632;2023-07-24T11:39:04;100363.63;;;24.89;78.73
34237;BME280;20501;45.956;13.632;2023-07-24T11:41:30;100349.25;;;25.52;78.35
34237;BME280;20501;45.956;13.632;2023-07-24T11:43:56;100331.28;;;25.66;78.54
34237;BME280;20501;45.956;13.632;2023-07-24T11:46:28;100311.25;;;25.76;76.36
34237;BME280;20501;45.956;13.632;2023-07-24T11:48:55;100273.63;;;25.58;75.21
34237;BME280;20501;45.956;13.632;2023-07-24T11:51:22;100248.97;;;25.73;72.20
34237;BME280;20501;45.956;13.632;2023-07-24T11:53:49;100225.19;;;25.72;72.83
34237;BME280;20501;45.956;13.632;2023-07-24T11:56:16;100203.38;;;25.76;72.61
34237;BME280;20501;45.956;13.632;2023-07-24T11:58:42;100190.31;;;25.88;72.22
34237;BME280;20501;45.956;13.632;2023-07-24T12:01:07;100181.84;;;25.61;73.87
34237;BME280;20501;45.956;13.632;2023-07-24T12:03:33;100147.81;;;25.43;74.50
34237;BME280;20501;45.956;13.632;2023-07-24T12:05:58;100129.72;;;25.70;71.70
34237;BME280;20501;45.956;13.632;2023-07-24T12:08:33;100118.63;;;25.87;72.77
34237;BME280;20501;45.956;13.632;2023-07-24T12:10:59;100105.50;;;25.43;73.23
34237;BME280;20501;45.956;13.632;2023-07-24T12:13:24;100109.75;;;25.85;73.84
34237;BME280;20501;45.956;13.632;2023-07-24T12:15:50;100107.59;;;26.09;70.59
34237;BME280;20501;45.956;13.632;2023-07-24T12:18:15;100081.09;;;25.91;70.98
34237;BME280;20501;45.956;13.632;2023-07-24T12:20:41;100083.88;;;25.74;72.55
34237;BME280;20501;45.956;13.632;2023-07-24T12:23:06;100094.66;;;26.09;69.56
34237;BME280;20501;45.956;13.632;2023-07-24T12:25:31;100108.75;;;26.30;70.84
34237;BME280;20501;45.956;13.632;2023-07-24T12:27:57;100132.66;;;26.36;69.03
34237;BME280;20501;45.956;13.632;2023-07-24T12:30:23;100145.47;;;26.42;65.33
34237;BME280;20501;45.956;13.632;2023-07-24T12:32:48;100167.09;;;25.89;72.07
34237;BME280;20501;45.956;13.632;2023-07-24T12:35:15;100169.34;;;26.26;65.42
34237;BME280;20501;45.956;13.632;2023-07-24T12:37:41;100156.06;;;26.46;64.96
34237;BME280;20501;45.956;13.632;2023-07-24T12:40:08;100123.56;;;26.41;65.74
34237;BME280;20501;45.956;13.632;2023-07-24T12:42:34;100107.94;;;26.52;64.81
34237;BME280;20501;45.956;13.632;2023-07-24T12:44:59;100098.19;;;26.27;66.35
34237;BME280;20501;45.956;13.632;2023-07-24T12:47:24;100083.78;;;26.25;67.82